Aviation Digital Data Service (ADDS)

Output produced by METARs form (1436 UTC 23 January 2019)
found at http://www.aviationweather.gov/metar/data/
 
Forecast for: NLWW (HIHIFO ILE WALLI, WS)
Text: TAF NLWW 231100Z 2312/2412 VRB02KT 9999 SCT020
Forecast period: 1200 UTC 23 January 2019 to 1200 UTC 24 January 2019
Forecast type: FROM: standard forecast or significant change
Winds: variable direction winds at 2 MPH (2 knots; 1.0 m/s)
Visibility: 6 or more miles 10+ km)
Ceiling: at least 12,000 feet AGL
Clouds: scattered clouds at 2000 feet AGL
Weather: no significant weather forecast for this period
Text: TEMPO 2312/2412 4000 SHRA FEW018CB
Forecast period: 1200 UTC 23 January 2019 to 1200 UTC 24 January 2019
Forecast type: TEMPORARY: The following changes expected for less than half the time period
Visibility: 2.49 miles (4.01 km)
Ceiling: at least 12,000 feet AGL
Clouds: few clouds at 1800 feet AGL
Weather: SHRA  (rain showers)
Text: PROB40
Forecast period: 2100 UTC 23 January 2019 to 1200 UTC 24 January 2019
Forecast type: TEMPORARY: The following changes expected for less than half the time period
Visibility: 1.24 miles (2.00 km)
Ceiling: 1200 feet AGL
Clouds: broken clouds at 1200 feet AGL
scattered clouds at 1600 feet AGL
Weather: +SHRA  (heavy rain showers)